createdAt,value
2019-02-26T00:00:49.628Z,5.50
2019-02-26T00:03:19.885Z,5.50
2019-02-26T00:05:50.260Z,5.40
2019-02-26T00:08:21.402Z,5.40
2019-02-26T00:10:50.181Z,5.40
2019-02-26T00:13:18.878Z,5.40
2019-02-26T00:15:48.439Z,5.40
2019-02-26T00:18:19.039Z,5.40
2019-02-26T00:20:47.485Z,5.50
2019-02-26T00:23:15.961Z,5.50
2019-02-26T00:25:44.444Z,5.50
2019-02-26T00:28:13.775Z,5.50
2019-02-26T00:30:43.120Z,5.60
2019-02-26T00:33:11.579Z,5.60
2019-02-26T00:35:41.655Z,5.60
2019-02-26T00:38:11.625Z,5.60
2019-02-26T00:40:40.991Z,5.50
2019-02-26T00:43:10.651Z,5.50
2019-02-26T00:45:39.236Z,5.50
2019-02-26T00:48:07.796Z,5.40
2019-02-26T00:50:37.399Z,5.40
2019-02-26T00:53:06.552Z,5.40
2019-02-26T00:55:37.364Z,5.30
2019-02-26T00:58:05.936Z,5.30
2019-02-26T01:00:35.612Z,5.30
2019-02-26T01:03:06.017Z,5.30
2019-02-26T01:05:36.145Z,5.20
2019-02-26T01:08:06.451Z,5.20
2019-02-26T01:10:36.729Z,5.20
2019-02-26T01:13:07.143Z,5.20
2019-02-26T01:15:35.462Z,5.20
2019-02-26T01:18:05.586Z,5.20
2019-02-26T01:20:34.304Z,5.10
2019-02-26T01:23:02.775Z,5.10
2019-02-26T01:25:31.255Z,5.10
2019-02-26T01:28:00.406Z,5.10
2019-02-26T01:30:31.291Z,5.00
2019-02-26T01:33:00.564Z,5.00
2019-02-26T01:35:30.827Z,5.00
2019-02-26T01:38:00.538Z,5.00
2019-02-26T01:40:29.232Z,4.90
2019-02-26T01:42:58.520Z,4.90
2019-02-26T01:45:29.813Z,4.90
2019-02-26T01:47:58.096Z,4.80
2019-02-26T01:50:28.018Z,4.80
2019-02-26T01:52:58.516Z,4.80
2019-02-26T01:55:27.709Z,4.80
2019-02-26T01:57:58.490Z,4.80
2019-02-26T02:00:26.608Z,4.70
2019-02-26T02:02:55.225Z,4.70
2019-02-26T02:05:24.239Z,4.70
2019-02-26T02:07:55.835Z,4.70
2019-02-26T02:10:24.082Z,4.70
2019-02-26T02:12:55.258Z,4.70
2019-02-26T02:15:23.768Z,4.60
2019-02-26T02:17:52.470Z,4.60
2019-02-26T02:20:21.555Z,4.60
2019-02-26T02:22:50.236Z,4.60
2019-02-26T02:25:18.822Z,4.50
2019-02-26T02:27:49.754Z,4.60
2019-02-26T02:30:23.194Z,4.50
2019-02-26T02:32:53.719Z,4.50
2019-02-26T02:35:19.532Z,4.50
2019-02-26T02:37:50.734Z,4.40
2019-02-26T02:40:18.509Z,4.40
2019-02-26T02:42:49.165Z,4.40
2019-02-26T02:45:20.789Z,4.40
2019-02-26T02:47:47.393Z,4.40
2019-02-26T02:50:18.395Z,4.40
2019-02-26T02:52:46.332Z,4.40
2019-02-26T02:55:17.177Z,4.50
2019-02-26T02:57:48.760Z,4.50
2019-02-26T03:00:16.403Z,4.60
2019-02-26T03:02:46.652Z,4.70
2019-02-26T03:05:15.280Z,4.70
2019-02-26T03:07:47.550Z,4.70
2019-02-26T03:10:14.880Z,4.70
2019-02-26T03:12:46.889Z,4.70
2019-02-26T03:15:14.906Z,4.70
2019-02-26T03:17:43.456Z,4.70
2019-02-26T03:20:13.328Z,4.60
2019-02-26T03:22:45.332Z,4.50
2019-02-26T03:25:20.501Z,4.50
2019-02-26T03:27:47.074Z,4.40
2019-02-26T03:30:26.590Z,4.40
2019-02-26T03:32:52.161Z,4.40
2019-02-26T03:35:19.658Z,4.30
2019-02-26T03:37:51.475Z,4.30
2019-02-26T03:40:20.888Z,4.30
2019-02-26T03:42:49.345Z,4.30
2019-02-26T03:45:23.800Z,4.20
2019-02-26T03:47:48.092Z,4.30
2019-02-26T03:50:16.935Z,4.30
2019-02-26T03:52:45.806Z,4.40
2019-02-26T03:55:18.260Z,4.40
2019-02-26T03:57:47.611Z,4.40
2019-02-26T04:00:20.029Z,4.30
2019-02-26T04:02:51.851Z,4.30
2019-02-26T04:05:19.349Z,4.20
2019-02-26T04:07:51.614Z,4.20
2019-02-26T04:10:18.078Z,4.10
2019-02-26T04:12:48.774Z,4.10
2019-02-26T04:15:18.754Z,4.00
2019-02-26T04:17:47.237Z,4.00
2019-02-26T04:20:16.303Z,4.00
2019-02-26T04:22:48.861Z,4.00
2019-02-26T04:25:18.090Z,4.00
2019-02-26T04:28:15.468Z,4.00
2019-02-26T04:30:47.818Z,4.00
2019-02-26T04:33:41.371Z,4.10
2019-02-26T04:36:20.314Z,4.10
2019-02-26T04:39:13.667Z,4.10
2019-02-26T04:42:03.624Z,4.10
2019-02-26T04:45:09.151Z,4.10
2019-02-26T04:47:52.469Z,4.10
2019-02-26T04:50:23.071Z,4.10
2019-02-26T04:52:50.073Z,4.10
2019-02-26T04:55:18.542Z,4.10
2019-02-26T04:57:49.066Z,4.10
2019-02-26T05:00:17.460Z,4.00
2019-02-26T05:02:46.018Z,4.00
2019-02-26T05:05:14.571Z,4.00
2019-02-26T05:07:45.086Z,3.90
2019-02-26T05:10:13.248Z,3.90
2019-02-26T05:12:41.720Z,3.90
2019-02-26T05:15:14.004Z,3.80
2019-02-26T05:17:40.444Z,3.80
2019-02-26T05:20:12.415Z,3.80
2019-02-26T05:22:39.258Z,3.80
2019-02-26T05:25:13.818Z,3.70
2019-02-26T05:27:42.109Z,3.70
2019-02-26T05:30:12.851Z,3.70
2019-02-26T05:32:39.841Z,3.70
2019-02-26T05:35:08.393Z,3.70
2019-02-26T05:37:40.190Z,3.70
2019-02-26T05:40:12.175Z,3.70
2019-02-26T05:42:37.977Z,3.60
2019-02-26T05:45:09.409Z,3.60
2019-02-26T05:47:37.378Z,3.60
2019-02-26T05:50:12.398Z,3.60
2019-02-26T05:52:38.217Z,3.60
2019-02-26T05:55:07.419Z,3.60
2019-02-26T05:57:35.965Z,3.60
2019-02-26T06:00:08.443Z,3.60
2019-02-26T06:02:39.422Z,3.60
2019-02-26T06:05:08.528Z,3.50
2019-02-26T06:07:38.838Z,3.50
2019-02-26T06:10:07.817Z,3.50
2019-02-26T06:12:38.252Z,3.50
2019-02-26T06:15:08.087Z,3.50
2019-02-26T06:17:40.620Z,3.60
2019-02-26T06:20:19.494Z,3.60
2019-02-26T06:22:47.956Z,3.60
2019-02-26T06:25:20.657Z,3.60
2019-02-26T06:27:46.709Z,3.60
2019-02-26T06:30:15.941Z,3.60
2019-02-26T06:32:44.800Z,3.60
2019-02-26T06:35:19.193Z,3.60
2019-02-26T06:37:46.727Z,3.60
2019-02-26T06:40:16.670Z,3.60
2019-02-26T06:42:45.285Z,3.70
2019-02-26T06:45:16.375Z,3.70
2019-02-26T06:47:45.704Z,3.70
2019-02-26T06:50:17.937Z,3.70
2019-02-26T06:52:47.509Z,3.80
2019-02-26T06:55:15.551Z,3.80
2019-02-26T06:57:47.165Z,3.80
2019-02-26T07:00:18.953Z,3.90
2019-02-26T07:02:47.083Z,3.90
2019-02-26T07:05:15.728Z,3.90
2019-02-26T07:07:44.193Z,3.90
2019-02-26T07:10:18.325Z,3.90
2019-02-26T07:12:46.256Z,3.90
2019-02-26T07:15:15.918Z,4.00
2019-02-26T07:17:45.947Z,4.00
2019-02-26T07:20:14.592Z,4.00
2019-02-26T07:22:44.122Z,4.00
2019-02-26T07:25:16.068Z,4.00
2019-02-26T07:27:43.566Z,4.00
2019-02-26T07:30:12.508Z,4.10
2019-02-26T07:32:43.081Z,4.10
2019-02-26T07:35:13.561Z,4.10
2019-02-26T07:37:41.407Z,4.10
2019-02-26T07:40:15.671Z,4.10
2019-02-26T07:42:44.732Z,4.20
2019-02-26T07:45:15.359Z,4.20
2019-02-26T07:47:45.239Z,4.30
2019-02-26T07:50:14.686Z,4.30
2019-02-26T07:52:44.295Z,4.40
2019-02-26T07:55:15.314Z,4.40
2019-02-26T07:57:45.647Z,4.50
2019-02-26T08:00:17.326Z,4.60
2019-02-26T08:02:45.805Z,4.70
2019-02-26T08:05:16.186Z,4.80
2019-02-26T08:07:46.665Z,4.80
2019-02-26T08:10:18.869Z,4.90
2019-02-26T08:12:46.809Z,5.00
2019-02-26T08:15:15.807Z,5.10
2019-02-26T08:17:47.785Z,5.20
2019-02-26T08:20:15.453Z,5.30
2019-02-26T08:22:43.931Z,5.30
2019-02-26T08:25:13.330Z,5.40
2019-02-26T08:27:41.825Z,5.50
2019-02-26T08:30:20.170Z,5.50
2019-02-26T08:32:48.500Z,5.60
2019-02-26T08:35:18.347Z,5.60
2019-02-26T08:37:46.230Z,5.70
2019-02-26T08:40:15.479Z,5.80
2019-02-26T08:42:43.976Z,5.90
2019-02-26T08:45:20.404Z,6.00
2019-02-26T08:47:48.231Z,6.10
2019-02-26T08:50:16.764Z,6.20
2019-02-26T08:52:49.400Z,6.30
2019-02-26T08:55:18.383Z,6.40
2019-02-26T08:57:46.087Z,6.50
2019-02-26T09:00:19.298Z,6.60
2019-02-26T09:02:50.567Z,6.80
2019-02-26T09:05:18.080Z,6.80
2019-02-26T09:07:47.519Z,6.90
2019-02-26T09:10:17.752Z,7.00
2019-02-26T09:12:48.933Z,7.10
2019-02-26T09:15:19.917Z,7.20
2019-02-26T09:17:48.389Z,7.30
2019-02-26T09:20:18.686Z,7.40
2019-02-26T09:22:50.285Z,7.50
2019-02-26T09:25:17.489Z,7.60
2019-02-26T09:27:45.996Z,7.60
2019-02-26T09:30:19.287Z,7.70
2019-02-26T09:32:48.058Z,7.80
2019-02-26T09:35:20.379Z,7.90
2019-02-26T09:37:50.593Z,8.00
2019-02-26T09:40:23.038Z,8.00
2019-02-26T09:42:54.243Z,8.10
2019-02-26T09:45:29.148Z,8.20
2019-02-26T09:47:57.979Z,8.30
2019-02-26T09:50:27.351Z,8.40
2019-02-26T09:52:58.993Z,8.50
2019-02-26T09:55:27.195Z,8.60
2019-02-26T09:57:56.234Z,8.70
2019-02-26T10:00:28.556Z,8.80
2019-02-26T10:02:56.143Z,8.90
2019-02-26T10:05:25.195Z,8.90
2019-02-26T10:07:56.884Z,9.00
2019-02-26T10:10:28.059Z,9.10
2019-02-26T10:12:57.326Z,9.10
2019-02-26T10:15:26.706Z,9.20
2019-02-26T10:17:56.797Z,9.20
2019-02-26T10:20:29.477Z,9.30
2019-02-26T10:23:00.781Z,9.40
2019-02-26T10:25:32.189Z,9.40
2019-02-26T10:28:03.033Z,9.50
2019-02-26T10:30:33.216Z,9.60
2019-02-26T10:33:02.748Z,9.60
2019-02-26T10:35:33.564Z,9.70
2019-02-26T10:38:05.756Z,9.70
2019-02-26T10:40:35.576Z,9.80
2019-02-26T10:43:04.676Z,9.80
2019-02-26T10:45:38.711Z,9.90
2019-02-26T10:48:04.878Z,10.00
2019-02-26T10:50:33.988Z,10.10
2019-02-26T10:53:09.574Z,10.10
2019-02-26T10:55:38.751Z,10.10
2019-02-26T10:58:09.982Z,10.20
2019-02-26T11:00:37.939Z,10.30
2019-02-26T11:03:08.920Z,10.30
2019-02-26T11:05:39.772Z,10.40
2019-02-26T11:08:09.523Z,10.50
2019-02-26T11:10:41.788Z,10.50
2019-02-26T11:13:09.661Z,10.70
2019-02-26T11:15:38.852Z,10.80
2019-02-26T11:18:08.997Z,10.90
2019-02-26T11:20:38.708Z,11.00
2019-02-26T11:23:08.965Z,11.10
2019-02-26T11:25:38.590Z,11.20
2019-02-26T11:28:09.802Z,11.20
2019-02-26T11:30:38.448Z,11.30
2019-02-26T11:33:08.619Z,11.30
2019-02-26T11:35:39.695Z,11.40
2019-02-26T11:38:09.805Z,11.40
2019-02-26T11:40:39.854Z,11.40
2019-02-26T11:43:13.813Z,11.50
2019-02-26T11:45:41.839Z,11.70
2019-02-26T11:48:10.511Z,11.70
2019-02-26T11:50:44.198Z,11.90
2019-02-26T11:53:10.333Z,12.00
2019-02-26T11:55:39.395Z,12.10
2019-02-26T11:58:10.802Z,12.30
2019-02-26T12:00:42.835Z,12.40
2019-02-26T12:03:11.699Z,12.50
2019-02-26T12:05:41.753Z,12.50
2019-02-26T12:08:11.574Z,12.70
2019-02-26T12:10:41.796Z,12.70
2019-02-26T12:13:10.873Z,12.80
2019-02-26T12:15:42.736Z,12.90
2019-02-26T12:18:13.075Z,13.00
2019-02-26T12:20:43.497Z,13.10
2019-02-26T12:23:14.286Z,13.30
2019-02-26T12:25:43.175Z,13.40
2019-02-26T12:28:13.703Z,13.60
2019-02-26T12:30:44.744Z,13.60
2019-02-26T12:33:14.820Z,13.80
2019-02-26T12:35:44.029Z,13.80
2019-02-26T12:40:46.789Z,13.70
2019-02-26T12:43:16.266Z,13.60
2019-02-26T12:45:45.519Z,13.60
2019-02-26T12:48:19.138Z,13.50
2019-02-26T12:50:45.372Z,13.40
2019-02-26T12:53:17.208Z,13.30
2019-02-26T12:55:45.237Z,13.30
2019-02-26T12:58:17.041Z,13.20
2019-02-26T13:00:45.093Z,13.10
2019-02-26T13:03:15.923Z,13.10
2019-02-26T13:05:45.691Z,13.10
2019-02-26T13:08:17.190Z,13.10
2019-02-26T13:10:50.544Z,13.10
2019-02-26T13:13:17.597Z,13.20
2019-02-26T13:15:46.704Z,13.30
2019-02-26T13:18:15.774Z,13.40
2019-02-26T13:20:44.841Z,13.40
2019-02-26T13:23:20.394Z,13.40
2019-02-26T13:25:44.686Z,13.50
2019-02-26T13:28:13.740Z,13.50
2019-02-26T13:30:42.800Z,13.50
2019-02-26T13:33:11.891Z,13.40
2019-02-26T13:35:41.949Z,13.30
2019-02-26T13:38:11.896Z,13.30
2019-02-26T13:40:40.984Z,13.30
2019-02-26T13:43:10.128Z,13.40
2019-02-26T13:45:39.324Z,13.40
2019-02-26T13:48:08.626Z,13.60
2019-02-26T13:50:39.096Z,13.60
2019-02-26T13:53:08.370Z,13.80
2019-02-26T13:55:37.434Z,13.90
2019-02-26T13:58:11.721Z,14.10
2019-02-26T14:00:37.673Z,14.20
2019-02-26T14:03:06.820Z,14.20
2019-02-26T14:05:38.393Z,14.20
2019-02-26T14:08:06.672Z,14.10
2019-02-26T14:10:35.846Z,14.00
2019-02-26T14:13:05.165Z,13.90
2019-02-26T14:15:34.242Z,13.90
2019-02-26T14:18:03.381Z,13.90
2019-02-26T14:20:32.691Z,13.90
2019-02-26T14:23:01.753Z,13.90
2019-02-26T14:25:30.883Z,13.90
2019-02-26T14:28:00.327Z,13.90
2019-02-26T14:30:29.405Z,13.90
2019-02-26T14:32:58.482Z,13.80
2019-02-26T14:35:27.640Z,13.80
2019-02-26T14:37:56.703Z,13.90
2019-02-26T14:40:25.781Z,13.80
2019-02-26T14:42:54.841Z,13.80
2019-02-26T14:45:27.738Z,13.80
2019-02-26T14:47:56.813Z,13.90
2019-02-26T14:50:26.552Z,14.00
2019-02-26T14:52:55.761Z,14.00
2019-02-26T14:55:24.895Z,14.00
2019-02-26T14:57:53.933Z,14.00
2019-02-26T15:00:33.761Z,14.00
2019-02-26T15:03:02.832Z,14.10
2019-02-26T15:05:31.898Z,14.20
2019-02-26T15:08:01.016Z,14.30
2019-02-26T15:10:30.086Z,14.50
2019-02-26T15:12:59.150Z,14.60
2019-02-26T15:15:28.249Z,14.70
2019-02-26T15:17:57.395Z,14.70
2019-02-26T15:20:27.209Z,14.70
2019-02-26T15:22:56.521Z,14.80
2019-02-26T15:25:30.856Z,14.90
2019-02-26T15:28:05.113Z,15.00
2019-02-26T15:30:30.766Z,15.00
2019-02-26T15:32:59.808Z,14.90
2019-02-26T15:35:29.066Z,14.90
2019-02-26T15:37:58.112Z,14.90
2019-02-26T15:40:27.181Z,14.90
2019-02-26T15:42:56.472Z,14.90
2019-02-26T15:45:29.006Z,14.90
2019-02-26T15:47:58.178Z,14.90
2019-02-26T15:50:27.386Z,14.90
2019-02-26T15:52:56.445Z,14.80
2019-02-26T15:55:30.906Z,14.80
2019-02-26T15:58:03.405Z,14.60
2019-02-26T16:00:31.056Z,14.50
2019-02-26T16:03:00.218Z,14.30
2019-02-26T16:05:34.867Z,14.10
2019-02-26T16:08:04.334Z,13.90
2019-02-26T16:10:33.395Z,13.70
2019-02-26T16:13:05.295Z,13.60
2019-02-26T16:15:35.509Z,13.50
2019-02-26T16:18:04.653Z,13.50
2019-02-26T16:20:33.804Z,13.50
2019-02-26T16:23:02.925Z,13.50
2019-02-26T16:25:32.125Z,13.50
2019-02-26T16:28:01.356Z,13.50
2019-02-26T16:30:30.645Z,13.30
2019-02-26T16:32:59.703Z,13.10
2019-02-26T16:35:28.872Z,13.00
2019-02-26T16:37:58.002Z,12.90
2019-02-26T16:40:31.338Z,12.80
2019-02-26T16:42:57.920Z,12.80
2019-02-26T16:45:28.016Z,12.80
2019-02-26T16:47:57.486Z,12.70
2019-02-26T16:50:33.004Z,12.70
2019-02-26T16:53:02.090Z,12.70
2019-02-26T16:55:31.524Z,12.70
2019-02-26T16:58:03.244Z,12.70
2019-02-26T17:00:32.278Z,12.60
2019-02-26T17:03:01.489Z,12.60
2019-02-26T17:05:30.574Z,12.60
2019-02-26T17:08:00.095Z,12.60
2019-02-26T17:10:30.482Z,12.50
2019-02-26T17:13:02.435Z,12.50
2019-02-26T17:15:31.482Z,12.40
2019-02-26T17:18:00.551Z,12.20
2019-02-26T17:20:29.721Z,12.00
2019-02-26T17:22:59.057Z,11.90
2019-02-26T17:25:29.034Z,11.70
2019-02-26T17:27:58.477Z,11.60
2019-02-26T17:30:27.605Z,11.40
2019-02-26T17:32:56.923Z,11.30
2019-02-26T17:35:28.681Z,11.20
2019-02-26T17:37:56.837Z,11.10
2019-02-26T17:40:27.013Z,11.00
2019-02-26T17:42:56.087Z,11.00
2019-02-26T17:45:37.208Z,10.90
2019-02-26T17:48:07.514Z,10.80
2019-02-26T17:50:43.391Z,10.70
2019-02-26T17:53:11.490Z,10.70
2019-02-26T17:55:40.595Z,10.60
2019-02-26T17:58:10.594Z,10.60
2019-02-26T18:00:43.326Z,10.60
2019-02-26T18:03:12.391Z,10.60
2019-02-26T18:05:50.938Z,10.50
2019-02-26T18:08:14.223Z,10.50
2019-02-26T18:10:43.053Z,10.40
2019-02-26T18:13:12.121Z,10.40
2019-02-26T18:15:41.170Z,10.50
2019-02-26T18:18:10.237Z,10.50
2019-02-26T18:20:40.733Z,10.60
2019-02-26T18:23:10.043Z,10.60
2019-02-26T18:25:39.089Z,10.50
2019-02-26T18:28:08.893Z,10.40
2019-02-26T18:30:38.503Z,10.40
2019-02-26T18:33:07.672Z,10.30
2019-02-26T18:35:36.728Z,10.20
2019-02-26T18:38:05.797Z,10.10
2019-02-26T18:40:34.901Z,10.00
2019-02-26T18:43:03.973Z,9.90
2019-02-26T18:45:33.012Z,9.80
2019-02-26T18:48:02.078Z,9.70
2019-02-26T18:50:31.133Z,9.60
2019-02-26T18:53:00.192Z,9.50
2019-02-26T18:55:32.347Z,9.50
2019-02-26T18:58:00.039Z,9.50
2019-02-26T19:00:31.510Z,9.40
2019-02-26T19:03:00.592Z,9.40
2019-02-26T19:05:29.702Z,9.40
2019-02-26T19:07:58.772Z,9.30
2019-02-26T19:10:27.834Z,9.20
2019-02-26T19:12:56.895Z,9.20
2019-02-26T19:15:30.872Z,9.20
2019-02-26T19:18:02.668Z,9.10
2019-02-26T19:20:32.386Z,9.00
2019-02-26T19:23:02.138Z,9.00
2019-02-26T19:25:31.408Z,9.00
2019-02-26T19:28:00.466Z,8.90
2019-02-26T19:30:29.584Z,8.90
2019-02-26T19:32:58.644Z,8.80
2019-02-26T19:35:27.731Z,8.80
2019-02-26T19:38:01.211Z,8.80
2019-02-26T19:40:39.662Z,8.80
2019-02-26T19:43:08.853Z,8.70
2019-02-26T19:45:37.925Z,8.70
2019-02-26T19:48:06.995Z,8.60
2019-02-26T19:50:36.093Z,8.60
2019-02-26T19:53:05.145Z,8.50
2019-02-26T19:55:42.034Z,8.50
2019-02-26T19:58:11.081Z,8.40
2019-02-26T20:00:40.157Z,8.40
2019-02-26T20:03:09.219Z,8.40
2019-02-26T20:05:38.305Z,8.40
2019-02-26T20:08:07.421Z,8.30
2019-02-26T20:10:36.561Z,8.30
2019-02-26T20:13:05.685Z,8.20
2019-02-26T20:15:34.746Z,8.20
2019-02-26T20:18:03.803Z,8.10
2019-02-26T20:20:40.593Z,8.10
2019-02-26T20:23:05.972Z,8.10
2019-02-26T20:25:33.943Z,8.00
2019-02-26T20:28:05.537Z,8.00
2019-02-26T20:30:33.860Z,8.00
2019-02-26T20:33:03.995Z,7.90
2019-02-26T20:35:32.549Z,7.90
2019-02-26T20:38:01.598Z,7.90
2019-02-26T20:40:30.681Z,7.80
2019-02-26T20:43:01.860Z,7.80
2019-02-26T20:45:29.934Z,7.70
2019-02-26T20:47:58.980Z,7.70
2019-02-26T20:50:28.076Z,7.60
2019-02-26T20:52:57.212Z,7.60
2019-02-26T20:55:33.802Z,7.60
2019-02-26T20:58:02.382Z,7.60
2019-02-26T21:00:31.534Z,7.60
2019-02-26T21:03:00.002Z,7.50
2019-02-26T21:05:29.231Z,7.50
2019-02-26T21:07:58.965Z,7.40
2019-02-26T21:10:27.556Z,7.40
2019-02-26T21:12:56.112Z,7.40
2019-02-26T21:15:25.926Z,7.40
2019-02-26T21:17:57.839Z,7.30
2019-02-26T21:20:24.763Z,7.30
2019-02-26T21:22:54.955Z,7.30
2019-02-26T21:25:23.516Z,7.30
2019-02-26T21:27:52.039Z,7.30
2019-02-26T21:30:22.369Z,7.20
2019-02-26T21:32:50.907Z,7.20
2019-02-26T21:35:20.558Z,7.20
2019-02-26T21:37:49.908Z,7.10
2019-02-26T21:40:18.442Z,7.10
2019-02-26T21:42:46.939Z,7.10
2019-02-26T21:45:16.579Z,7.00
2019-02-26T21:47:45.100Z,7.00
2019-02-26T21:50:14.712Z,7.00
2019-02-26T21:52:43.259Z,7.00
2019-02-26T21:55:13.279Z,7.00
2019-02-26T21:57:41.801Z,6.90
2019-02-26T22:00:20.170Z,6.90
2019-02-26T22:02:51.956Z,6.90
2019-02-26T22:05:19.163Z,6.80
2019-02-26T22:07:52.047Z,6.80
2019-02-26T22:10:22.030Z,6.70
2019-02-26T22:12:50.527Z,6.70
2019-02-26T22:15:19.063Z,6.70
2019-02-26T22:17:47.569Z,6.60
2019-02-26T22:20:26.643Z,6.60
2019-02-26T22:22:48.444Z,6.70
2019-02-26T22:25:17.551Z,6.60
2019-02-26T22:27:46.242Z,6.60
2019-02-26T22:30:21.564Z,6.60
2019-02-26T22:32:48.666Z,6.50
2019-02-26T22:35:17.129Z,6.50
2019-02-26T22:37:45.608Z,6.50
2019-02-26T22:40:14.919Z,6.50
2019-02-26T22:42:43.913Z,6.50
2019-02-26T22:45:17.327Z,6.40
2019-02-26T22:47:45.961Z,6.40
2019-02-26T22:50:15.882Z,6.40
2019-02-26T22:52:44.364Z,6.30
2019-02-26T22:55:16.617Z,6.30
2019-02-26T22:57:45.405Z,6.30
2019-02-26T23:00:24.274Z,6.20
2019-02-26T23:02:52.782Z,6.20
2019-02-26T23:05:25.461Z,6.20
2019-02-26T23:07:51.502Z,6.10
2019-02-26T23:10:19.977Z,6.10
2019-02-26T23:12:48.450Z,6.10
2019-02-26T23:15:17.193Z,6.10
2019-02-26T23:17:46.209Z,6.00
2019-02-26T23:20:15.122Z,6.00
2019-02-26T23:22:43.676Z,6.00
2019-02-26T23:25:12.389Z,5.90
2019-02-26T23:27:41.264Z,5.90
2019-02-26T23:30:12.264Z,5.90
2019-02-26T23:32:40.792Z,5.90
2019-02-26T23:35:14.683Z,5.80
2019-02-26T23:37:43.184Z,5.80
2019-02-26T23:40:13.073Z,5.80
2019-02-26T23:42:41.545Z,5.80
2019-02-26T23:45:12.101Z,5.80
2019-02-26T23:47:40.696Z,5.80
2019-02-26T23:50:10.617Z,5.80
2019-02-26T23:52:39.149Z,5.80
2019-02-26T23:55:13.062Z,5.90
2019-02-26T23:57:39.755Z,5.90
